createdAt,value
2023-04-04T00:00:21.073Z,1.20
2023-04-04T00:01:21.093Z,1.40
2023-04-04T00:02:21.113Z,1.30
2023-04-04T00:03:21.168Z,1.30
2023-04-04T00:04:21.095Z,1.20
2023-04-04T00:05:21.051Z,1.10
2023-04-04T00:06:21.066Z,0.90
2023-04-04T00:07:21.022Z,1.10
2023-04-04T00:08:21.089Z,1.20
2023-04-04T00:09:21.006Z,1.20
2023-04-04T00:10:21.000Z,1.40
2023-04-04T00:11:21.015Z,1.60
2023-04-04T00:12:21.311Z,1.30
2023-04-04T00:13:20.975Z,1.20
2023-04-04T00:14:20.966Z,1.50
2023-04-04T00:15:20.958Z,1.20
2023-04-04T00:16:21.026Z,1.40
2023-04-04T00:17:20.940Z,1.10
2023-04-04T00:18:20.932Z,1.30
2023-04-04T00:19:20.922Z,1.10
2023-04-04T00:20:20.922Z,1.30
2023-04-04T00:21:20.939Z,1.20
2023-04-04T00:22:20.912Z,1.50
2023-04-04T00:23:20.898Z,1.20
2023-04-04T00:24:20.889Z,1.30
2023-04-04T00:25:20.877Z,1.30
2023-04-04T00:26:20.907Z,1.20
2023-04-04T00:27:20.874Z,1.90
2023-04-04T00:28:20.854Z,1.40
2023-04-04T00:29:20.856Z,1.30
2023-04-04T00:30:20.876Z,1.50
2023-04-04T00:31:20.962Z,1.70
2023-04-04T00:32:20.901Z,1.00
2023-04-04T00:33:20.845Z,1.50
2023-04-04T00:34:20.805Z,1.40
2023-04-04T00:35:20.805Z,1.30
2023-04-04T00:36:20.818Z,1.10
2023-04-04T00:37:20.789Z,1.40
2023-04-04T00:38:20.774Z,1.50
2023-04-04T00:39:20.779Z,1.40
2023-04-04T00:40:20.758Z,1.40
2023-04-04T00:41:20.780Z,1.10
2023-04-04T00:42:20.753Z,1.60
2023-04-04T00:43:20.746Z,1.50
2023-04-04T00:44:20.748Z,1.50
2023-04-04T00:45:20.721Z,1.30
2023-04-04T00:46:20.748Z,1.20
2023-04-04T00:47:20.704Z,1.20
2023-04-04T00:48:20.705Z,2.00
2023-04-04T00:49:20.721Z,1.40
2023-04-04T00:50:20.702Z,1.50
2023-04-04T00:51:20.720Z,1.10
2023-04-04T00:52:20.678Z,1.20
2023-04-04T00:53:20.662Z,1.70
2023-04-04T00:54:20.661Z,1.10
2023-04-04T00:55:20.650Z,1.40
2023-04-04T00:56:20.684Z,1.20
2023-04-04T00:57:20.639Z,1.30
2023-04-04T00:58:20.635Z,1.40
2023-04-04T00:59:20.674Z,1.30
2023-04-04T01:00:20.629Z,1.50
2023-04-04T01:01:20.670Z,1.70
2023-04-04T01:02:20.606Z,1.60
2023-04-04T01:03:20.598Z,1.40
2023-04-04T01:04:20.677Z,1.70
2023-04-04T01:05:20.586Z,1.60
2023-04-04T01:06:20.606Z,1.30
2023-04-04T01:07:20.569Z,1.30
2023-04-04T01:08:20.564Z,1.70
2023-04-04T01:09:20.551Z,1.50
2023-04-04T01:10:20.542Z,1.70
2023-04-04T01:11:20.570Z,1.30
2023-04-04T01:12:20.525Z,1.70
2023-04-04T01:13:20.519Z,1.60
2023-04-04T01:14:20.510Z,2.30
2023-04-04T01:15:20.516Z,1.70
2023-04-04T01:16:20.532Z,1.50
2023-04-04T01:17:20.482Z,1.70
2023-04-04T01:18:20.476Z,1.40
2023-04-04T01:19:20.470Z,1.60
2023-04-04T01:20:20.466Z,1.70
2023-04-04T01:21:20.475Z,1.50
2023-04-04T01:22:20.441Z,1.50
2023-04-04T01:23:20.434Z,2.00
2023-04-04T01:24:20.431Z,2.00
2023-04-04T01:25:20.431Z,1.70
2023-04-04T01:26:20.453Z,2.30
2023-04-04T01:27:20.411Z,1.60
2023-04-04T01:28:20.390Z,1.90
2023-04-04T01:29:20.385Z,1.60
2023-04-04T01:30:20.376Z,1.70
2023-04-04T01:31:20.415Z,1.80
2023-04-04T01:32:20.381Z,1.80
2023-04-04T01:33:20.363Z,1.30
2023-04-04T01:34:20.362Z,1.60
2023-04-04T01:35:20.350Z,1.80
2023-04-04T01:36:20.374Z,1.50
2023-04-04T01:37:20.322Z,1.60
2023-04-04T01:38:20.320Z,1.80
2023-04-04T01:39:20.313Z,1.80
2023-04-04T01:40:20.310Z,1.60
2023-04-04T01:41:20.382Z,1.60
2023-04-04T01:42:20.292Z,1.50
2023-04-04T01:43:20.281Z,1.80
2023-04-04T01:44:20.276Z,1.80
2023-04-04T01:45:20.278Z,1.60
2023-04-04T01:46:20.324Z,1.60
2023-04-04T01:47:20.282Z,1.60
2023-04-04T01:48:20.252Z,1.80
2023-04-04T01:49:20.246Z,1.70
2023-04-04T01:50:20.246Z,1.50
2023-04-04T01:51:20.230Z,1.90
2023-04-04T01:52:20.239Z,1.50
2023-04-04T01:53:20.213Z,1.80
2023-04-04T01:54:20.214Z,1.80
2023-04-04T01:55:20.198Z,1.90
2023-04-04T01:56:20.198Z,1.60
2023-04-04T01:57:20.208Z,1.90
2023-04-04T01:58:20.185Z,1.70
2023-04-04T01:59:20.206Z,1.70
2023-04-04T02:00:20.161Z,1.90
2023-04-04T02:01:20.239Z,1.90
2023-04-04T02:02:20.165Z,1.70
2023-04-04T02:03:20.150Z,2.40
2023-04-04T02:04:20.158Z,2.00
2023-04-04T02:05:20.130Z,1.70
2023-04-04T02:06:20.114Z,1.60
2023-04-04T02:07:20.137Z,1.80
2023-04-04T02:08:20.112Z,1.90
2023-04-04T02:09:20.098Z,1.50
2023-04-04T02:10:20.100Z,2.30
2023-04-04T02:11:20.089Z,2.00
2023-04-04T02:12:20.117Z,1.90
2023-04-04T02:13:20.064Z,2.30
2023-04-04T02:14:20.063Z,2.00
2023-04-04T02:15:20.049Z,1.90
2023-04-04T02:16:20.158Z,2.30
2023-04-04T02:17:20.055Z,2.00
2023-04-04T02:18:20.036Z,2.50
2023-04-04T02:19:20.025Z,2.40
2023-04-04T02:20:20.026Z,2.50
2023-04-04T02:21:20.014Z,1.90
2023-04-04T02:22:20.038Z,2.00
2023-04-04T02:23:19.987Z,2.10
2023-04-04T02:24:19.994Z,2.10
2023-04-04T02:25:19.975Z,1.90
2023-04-04T02:26:19.973Z,2.10
2023-04-04T02:27:19.988Z,2.40
2023-04-04T02:28:19.950Z,2.10
2023-04-04T02:29:19.946Z,2.40
2023-04-04T02:30:19.938Z,2.50
2023-04-04T02:31:19.959Z,2.20
2023-04-04T02:32:19.948Z,2.10
2023-04-04T02:33:19.911Z,2.60
2023-04-04T02:34:19.903Z,2.40
2023-04-04T02:35:19.897Z,2.30
2023-04-04T02:36:19.949Z,3.10
2023-04-04T02:37:19.913Z,2.00
2023-04-04T02:38:19.866Z,2.00
2023-04-04T02:39:19.864Z,2.30
2023-04-04T02:40:19.875Z,2.40
2023-04-04T02:41:19.855Z,2.00
2023-04-04T02:42:19.871Z,2.00
2023-04-04T02:43:19.839Z,2.40
2023-04-04T02:44:19.828Z,2.30
2023-04-04T02:45:19.822Z,2.00
2023-04-04T02:46:21.937Z,2.10
2023-04-04T02:47:20.833Z,2.10
2023-04-04T02:48:19.803Z,3.70
2023-04-04T02:49:19.798Z,2.20
2023-04-04T02:50:19.795Z,1.70
2023-04-04T02:51:19.783Z,2.20
2023-04-04T02:52:19.804Z,2.30
2023-04-04T02:53:19.766Z,2.60
2023-04-04T02:54:19.759Z,2.70
2023-04-04T02:55:19.751Z,2.30
2023-04-04T02:56:19.760Z,2.30
2023-04-04T02:57:19.764Z,2.90
2023-04-04T02:58:19.733Z,2.50
2023-04-04T02:59:19.765Z,2.70
2023-04-04T03:00:19.733Z,2.70
2023-04-04T03:01:19.738Z,2.90
2023-04-04T03:02:19.885Z,2.90
2023-04-04T03:03:19.959Z,3.20
2023-04-04T03:04:19.695Z,2.80
2023-04-04T03:05:19.682Z,3.00
2023-04-04T03:06:19.671Z,3.00
2023-04-04T03:07:19.693Z,3.20
2023-04-04T03:08:19.666Z,2.50
2023-04-04T03:09:19.670Z,2.60
2023-04-04T03:10:19.642Z,2.80
2023-04-04T03:11:19.635Z,2.80
2023-04-04T03:12:19.654Z,3.00
2023-04-04T03:13:19.624Z,2.90
2023-04-04T03:14:19.611Z,2.70
2023-04-04T03:15:19.611Z,2.70
2023-04-04T03:16:19.667Z,2.70
2023-04-04T03:17:19.604Z,3.00
2023-04-04T03:18:19.613Z,2.80
2023-04-04T03:19:19.575Z,2.50
2023-04-04T03:20:19.574Z,2.90
2023-04-04T03:21:19.557Z,2.70
2023-04-04T03:22:19.551Z,2.50
2023-04-04T03:23:19.573Z,2.60
2023-04-04T03:24:19.562Z,2.90
2023-04-04T03:25:19.535Z,2.60
2023-04-04T03:26:19.530Z,2.60
2023-04-04T03:27:19.526Z,2.50
2023-04-04T03:28:19.545Z,2.70
2023-04-04T03:29:19.497Z,2.80
2023-04-04T03:30:19.513Z,2.90
2023-04-04T03:31:19.481Z,3.20
2023-04-04T03:32:19.469Z,3.20
2023-04-04T03:33:19.506Z,3.50
2023-04-04T03:34:19.474Z,3.60
2023-04-04T03:35:19.469Z,3.90
2023-04-04T03:36:19.454Z,3.60
2023-04-04T03:37:19.437Z,3.50
2023-04-04T03:38:19.460Z,3.60
2023-04-04T03:39:19.436Z,4.00
2023-04-04T03:40:19.424Z,8.60
2023-04-04T03:41:19.423Z,4.30
2023-04-04T03:42:19.415Z,3.90
2023-04-04T03:43:19.429Z,3.80
2023-04-04T03:44:19.389Z,3.70
2023-04-04T03:45:19.385Z,3.60
2023-04-04T03:46:19.470Z,3.00
2023-04-04T03:47:19.420Z,3.50
2023-04-04T03:48:19.376Z,3.70
2023-04-04T03:49:19.357Z,3.30
2023-04-04T03:50:19.343Z,3.20
2023-04-04T03:51:19.329Z,3.40
2023-04-04T03:52:19.322Z,3.00
2023-04-04T03:53:19.343Z,3.20
2023-04-04T03:54:19.309Z,3.40
2023-04-04T03:55:19.306Z,3.10
2023-04-04T03:56:19.294Z,3.20
2023-04-04T03:57:19.290Z,3.50
2023-04-04T03:58:19.310Z,5.30
2023-04-04T03:59:19.296Z,7.50
2023-04-04T04:00:19.270Z,6.50
2023-04-04T04:01:19.258Z,6.10
2023-04-04T04:02:19.277Z,4.50
2023-04-04T04:03:19.342Z,4.10
2023-04-04T04:04:19.290Z,3.60
2023-04-04T04:05:19.238Z,3.20
2023-04-04T04:06:19.221Z,3.20
2023-04-04T04:07:19.211Z,2.90
2023-04-04T04:08:19.232Z,3.20
2023-04-04T04:09:19.220Z,3.70
2023-04-04T04:10:19.202Z,3.20
2023-04-04T04:11:19.212Z,3.10
2023-04-04T04:12:19.189Z,3.30
2023-04-04T04:13:19.194Z,3.00
2023-04-04T04:14:19.156Z,3.30
2023-04-04T04:15:19.158Z,3.20
2023-04-04T04:16:19.197Z,3.60
2023-04-04T04:17:19.143Z,3.40
2023-04-04T04:18:19.167Z,3.60
2023-04-04T04:19:19.136Z,3.50
2023-04-04T04:20:19.124Z,3.60
2023-04-04T04:21:19.114Z,3.60
2023-04-04T04:22:19.096Z,3.60
2023-04-04T04:23:19.122Z,3.60
2023-04-04T04:24:19.085Z,4.10
2023-04-04T04:25:19.078Z,3.30
2023-04-04T04:26:19.082Z,3.90
2023-04-04T04:27:19.083Z,3.70
2023-04-04T04:28:19.090Z,3.20
2023-04-04T04:29:19.059Z,3.30
2023-04-04T04:30:19.053Z,3.60
2023-04-04T04:31:19.090Z,3.40
2023-04-04T04:32:19.044Z,3.60
2023-04-04T04:33:19.043Z,3.30
2023-04-04T04:34:19.030Z,3.20
2023-04-04T04:35:19.004Z,3.60
2023-04-04T04:36:19.045Z,3.10
2023-04-04T04:37:18.996Z,3.40
2023-04-04T04:38:19.003Z,3.20
2023-04-04T04:39:18.975Z,3.20
2023-04-04T04:40:18.973Z,3.00
2023-04-04T04:41:18.963Z,2.90
2023-04-04T04:42:18.959Z,3.20
2023-04-04T04:43:18.978Z,3.50
2023-04-04T04:44:18.940Z,3.50
2023-04-04T04:45:18.928Z,3.20
2023-04-04T04:46:18.962Z,3.20
2023-04-04T04:47:18.913Z,3.40
2023-04-04T04:48:18.947Z,3.30
2023-04-04T04:49:18.955Z,3.30
2023-04-04T04:50:18.893Z,3.30
2023-04-04T04:51:18.886Z,3.10
2023-04-04T04:52:18.874Z,3.00
2023-04-04T04:53:18.890Z,3.10
2023-04-04T04:54:18.864Z,3.20
2023-04-04T04:55:18.856Z,3.20
2023-04-04T04:56:18.843Z,3.00
2023-04-04T04:57:18.837Z,3.70
2023-04-04T04:58:18.855Z,3.90
2023-04-04T04:59:18.917Z,3.40
2023-04-04T05:00:18.821Z,3.50
2023-04-04T05:01:18.832Z,3.50
2023-04-04T05:02:18.827Z,3.10
2023-04-04T05:03:18.831Z,3.10
2023-04-04T05:04:18.791Z,3.10
2023-04-04T05:05:18.788Z,3.20
2023-04-04T05:06:18.764Z,3.40
2023-04-04T05:07:18.762Z,3.90
2023-04-04T05:08:18.783Z,4.60
2023-04-04T05:09:18.746Z,4.00
2023-04-04T05:10:18.735Z,3.40
2023-04-04T05:11:18.728Z,3.10
2023-04-04T05:12:18.716Z,3.50
2023-04-04T05:13:18.735Z,3.30
2023-04-04T05:14:18.704Z,3.10
2023-04-04T05:15:18.705Z,3.70
2023-04-04T05:16:18.714Z,3.20
2023-04-04T05:17:18.701Z,3.10
2023-04-04T05:18:18.696Z,3.20
2023-04-04T05:19:18.719Z,2.70
2023-04-04T05:20:18.654Z,2.90
2023-04-04T05:21:18.645Z,2.40
2023-04-04T05:22:18.638Z,3.00
2023-04-04T05:23:18.647Z,2.40
2023-04-04T05:24:18.624Z,2.30
2023-04-04T05:25:18.623Z,2.40
2023-04-04T05:26:19.617Z,2.00
2023-04-04T05:27:18.599Z,2.30
2023-04-04T05:28:18.659Z,2.00
2023-04-04T05:29:18.612Z,2.10
2023-04-04T05:30:18.574Z,1.90
2023-04-04T05:31:18.729Z,2.10
2023-04-04T05:32:18.559Z,2.00
2023-04-04T05:33:18.573Z,2.00
2023-04-04T05:34:18.542Z,2.10
2023-04-04T05:35:18.593Z,2.20
2023-04-04T05:36:18.572Z,2.40
2023-04-04T05:37:18.522Z,2.60
2023-04-04T05:38:18.539Z,2.80
2023-04-04T05:39:19.516Z,2.90
2023-04-04T05:40:18.496Z,3.60
2023-04-04T05:41:18.486Z,3.30
2023-04-04T05:42:18.483Z,3.40
2023-04-04T05:43:18.499Z,3.30
2023-04-04T05:44:18.465Z,3.20
2023-04-04T05:45:18.452Z,3.70
2023-04-04T05:46:18.482Z,4.00
2023-04-04T05:47:18.438Z,4.50
2023-04-04T05:48:18.466Z,4.20
2023-04-04T05:49:18.420Z,3.80
2023-04-04T05:50:18.415Z,3.80
2023-04-04T05:51:19.418Z,3.70
2023-04-04T05:52:18.396Z,4.00
2023-04-04T05:53:18.417Z,4.30
2023-04-04T05:54:18.389Z,4.10
2023-04-04T05:55:18.375Z,4.40
2023-04-04T05:56:18.379Z,4.40
2023-04-04T05:57:18.360Z,3.70
2023-04-04T05:58:18.361Z,3.30
2023-04-04T05:59:18.438Z,3.30
2023-04-04T06:00:18.357Z,3.10
2023-04-04T06:01:18.330Z,2.60
2023-04-04T06:02:18.352Z,2.40
2023-04-04T06:03:21.180Z,2.80
2023-04-04T06:04:19.333Z,2.80
2023-04-04T06:05:18.308Z,2.00
2023-04-04T06:06:18.335Z,1.90
2023-04-04T06:07:18.286Z,2.00
2023-04-04T06:08:18.282Z,1.70
2023-04-04T06:09:18.297Z,1.50
2023-04-04T06:10:18.270Z,1.50
2023-04-04T06:11:18.254Z,1.70
2023-04-04T06:12:18.246Z,1.70
2023-04-04T06:13:18.242Z,1.70
2023-04-04T06:14:18.253Z,1.70
2023-04-04T06:15:18.221Z,1.90
2023-04-04T06:16:18.252Z,1.50
2023-04-04T06:17:18.205Z,1.90
2023-04-04T06:18:18.199Z,1.90
2023-04-04T06:19:20.123Z,2.00
2023-04-04T06:20:18.184Z,2.00
2023-04-04T06:21:18.175Z,1.80
2023-04-04T06:22:18.165Z,2.00
2023-04-04T06:23:18.154Z,1.90
2023-04-04T06:24:18.171Z,2.00
2023-04-04T06:25:18.139Z,1.90
2023-04-04T06:26:18.126Z,2.10
2023-04-04T06:27:18.123Z,2.30
2023-04-04T06:28:18.160Z,2.00
2023-04-04T06:29:18.141Z,1.80
2023-04-04T06:30:18.117Z,2.10
2023-04-04T06:31:18.104Z,2.80
2023-04-04T06:32:18.122Z,2.10
2023-04-04T06:33:18.080Z,1.90
2023-04-04T06:34:18.093Z,2.20
2023-04-04T06:35:19.999Z,1.80
2023-04-04T06:36:19.056Z,2.20
2023-04-04T06:37:18.037Z,2.10
2023-04-04T06:38:18.031Z,2.10
2023-04-04T06:39:18.048Z,2.00
2023-04-04T06:40:18.019Z,2.10
2023-04-04T06:41:18.011Z,2.20
2023-04-04T06:42:18.002Z,2.40
2023-04-04T06:43:18.000Z,2.10
2023-04-04T06:44:18.016Z,2.00
2023-04-04T06:45:17.997Z,2.00
2023-04-04T06:46:17.993Z,1.90
2023-04-04T06:47:17.966Z,3.40
2023-04-04T06:48:17.966Z,2.10
2023-04-04T06:49:17.981Z,1.70
2023-04-04T06:50:17.943Z,2.00
2023-04-04T06:51:17.932Z,1.90
2023-04-04T06:52:17.917Z,1.80
2023-04-04T06:53:17.921Z,1.70
2023-04-04T06:54:17.932Z,1.60
2023-04-04T06:55:17.897Z,1.90
2023-04-04T06:56:17.885Z,1.90
2023-04-04T06:57:17.881Z,2.00
2023-04-04T06:58:17.874Z,2.40
2023-04-04T06:59:17.906Z,1.60
2023-04-04T07:00:17.855Z,1.80
2023-04-04T07:01:17.883Z,2.00
2023-04-04T07:02:17.866Z,1.90
2023-04-04T07:03:17.870Z,1.90
2023-04-04T07:04:17.852Z,2.20
2023-04-04T07:05:17.882Z,1.80
2023-04-04T07:06:17.809Z,2.30
2023-04-04T07:07:17.807Z,1.80
2023-04-04T07:08:17.844Z,1.60
2023-04-04T07:09:28.011Z,2.00
2023-04-04T07:10:19.782Z,1.70
2023-04-04T07:11:17.774Z,1.70
2023-04-04T07:12:17.787Z,1.70
2023-04-04T07:13:17.765Z,1.50
2023-04-04T07:14:17.784Z,1.50
2023-04-04T07:15:17.758Z,1.50
2023-04-04T07:16:17.770Z,1.70
2023-04-04T07:17:24.599Z,2.00
2023-04-04T07:18:19.717Z,1.80
2023-04-04T07:19:17.739Z,1.70
2023-04-04T07:20:17.714Z,1.70
2023-04-04T07:21:17.699Z,1.70
2023-04-04T07:22:17.702Z,1.70
2023-04-04T07:23:17.689Z,1.60
2023-04-04T07:24:17.700Z,1.40
2023-04-04T07:25:17.672Z,1.50
2023-04-04T07:26:17.662Z,1.60
2023-04-04T07:27:17.661Z,1.70
2023-04-04T07:28:17.663Z,1.60
2023-04-04T07:29:17.695Z,1.30
2023-04-04T07:30:17.631Z,1.60
2023-04-04T07:31:17.632Z,1.50
2023-04-04T07:32:17.625Z,1.40
2023-04-04T07:33:17.610Z,1.90
2023-04-04T07:34:17.633Z,1.90
2023-04-04T07:35:17.601Z,1.60
2023-04-04T07:36:17.633Z,1.50
2023-04-04T07:37:17.594Z,1.50
2023-04-04T07:38:17.590Z,1.40
2023-04-04T07:39:17.587Z,1.50
2023-04-04T07:40:17.555Z,1.50
2023-04-04T07:41:17.556Z,1.50
2023-04-04T07:42:17.541Z,1.70
2023-04-04T07:43:17.556Z,1.90
2023-04-04T07:44:17.551Z,1.60
2023-04-04T07:45:17.520Z,3.10
2023-04-04T07:46:17.587Z,1.70
2023-04-04T07:47:17.504Z,3.20
2023-04-04T07:48:17.507Z,2.20
2023-04-04T07:49:17.513Z,1.60
2023-04-04T07:50:17.486Z,1.70
2023-04-04T07:51:17.470Z,1.80
2023-04-04T07:52:17.470Z,2.00
2023-04-04T07:53:17.459Z,1.70
2023-04-04T07:54:17.466Z,1.80
2023-04-04T07:55:17.436Z,1.60
2023-04-04T07:56:17.440Z,1.50
2023-04-04T07:57:17.417Z,2.00
2023-04-04T07:58:17.421Z,1.70
2023-04-04T07:59:17.444Z,1.60
2023-04-04T08:00:17.397Z,3.50
2023-04-04T08:01:17.395Z,2.00
2023-04-04T08:02:17.444Z,1.90
2023-04-04T08:03:17.557Z,2.10
2023-04-04T08:04:17.452Z,2.10
2023-04-04T08:05:17.364Z,2.00
2023-04-04T08:06:17.350Z,2.00
2023-04-04T08:07:17.352Z,2.10
2023-04-04T08:08:17.358Z,2.00
2023-04-04T08:09:17.350Z,2.30
2023-04-04T08:10:17.351Z,2.10
2023-04-04T08:11:17.313Z,2.10
2023-04-04T08:12:17.308Z,2.00
2023-04-04T08:13:17.303Z,2.00
2023-04-04T08:14:17.313Z,2.20
2023-04-04T08:15:17.301Z,2.10
2023-04-04T08:16:17.299Z,1.90
2023-04-04T08:17:17.267Z,2.10
2023-04-04T08:18:17.263Z,2.00
2023-04-04T08:19:17.279Z,1.80
2023-04-04T08:20:17.246Z,2.40
2023-04-04T08:21:17.235Z,1.90
2023-04-04T08:22:17.236Z,1.90
2023-04-04T08:23:17.227Z,2.00
2023-04-04T08:24:17.235Z,2.30
2023-04-04T08:25:17.210Z,2.10
2023-04-04T08:26:17.199Z,1.90
2023-04-04T08:27:17.184Z,2.00
2023-04-04T08:28:17.194Z,2.40
2023-04-04T08:29:17.195Z,2.00
2023-04-04T08:30:17.168Z,2.30
2023-04-04T08:31:17.199Z,2.10
2023-04-04T08:32:17.142Z,1.90
2023-04-04T08:33:17.190Z,1.90
2023-04-04T08:34:17.152Z,2.90
2023-04-04T08:35:17.128Z,2.90
2023-04-04T08:36:17.121Z,2.00
2023-04-04T08:37:17.141Z,1.60
2023-04-04T08:38:17.104Z,2.40
2023-04-04T08:39:17.115Z,1.90
2023-04-04T08:40:17.116Z,2.30
2023-04-04T08:41:17.086Z,2.20
2023-04-04T08:42:17.098Z,1.90
2023-04-04T08:43:17.062Z,1.90
2023-04-04T08:44:17.081Z,2.20
2023-04-04T08:45:17.056Z,2.10
2023-04-04T08:46:17.063Z,2.20
2023-04-04T08:47:17.034Z,1.70
2023-04-04T08:48:17.020Z,1.90
2023-04-04T08:49:17.054Z,2.30
2023-04-04T08:50:17.042Z,2.20
2023-04-04T08:51:17.003Z,1.70
2023-04-04T08:52:16.992Z,2.00
2023-04-04T08:53:16.984Z,1.90
2023-04-04T08:54:17.008Z,2.10
2023-04-04T08:55:16.976Z,2.00
2023-04-04T08:56:16.963Z,2.00
2023-04-04T08:57:16.955Z,1.90
2023-04-04T08:58:16.947Z,2.00
2023-04-04T08:59:17.028Z,1.70
2023-04-04T09:00:17.596Z,2.20
2023-04-04T09:01:16.974Z,2.20
2023-04-04T09:02:17.232Z,2.30
2023-04-04T09:03:16.988Z,2.00
2023-04-04T09:04:16.909Z,2.00
2023-04-04T09:05:16.921Z,2.40
2023-04-04T09:06:16.889Z,1.90
2023-04-04T09:07:16.895Z,1.80
2023-04-04T09:08:16.875Z,2.30
2023-04-04T09:09:16.872Z,1.90
2023-04-04T09:10:16.882Z,2.20
2023-04-04T09:11:16.851Z,2.40
2023-04-04T09:12:16.842Z,2.20
2023-04-04T09:13:16.993Z,2.20
2023-04-04T09:14:16.826Z,2.10
2023-04-04T09:15:16.866Z,2.40
2023-04-04T09:16:16.837Z,1.80
2023-04-04T09:17:16.808Z,2.20
2023-04-04T09:18:16.792Z,2.20
2023-04-04T09:19:16.785Z,2.20
2023-04-04T09:20:16.811Z,2.30
2023-04-04T09:21:16.767Z,2.50
2023-04-04T09:22:16.770Z,2.20
2023-04-04T09:23:16.748Z,2.10
2023-04-04T09:24:16.742Z,2.40
2023-04-04T09:25:16.858Z,2.10
2023-04-04T09:26:16.728Z,2.10
2023-04-04T09:27:16.723Z,2.10
2023-04-04T09:28:16.710Z,2.40
2023-04-04T09:29:16.700Z,2.40
2023-04-04T09:30:16.719Z,2.10
2023-04-04T09:31:16.688Z,2.40
2023-04-04T09:32:16.729Z,2.20
2023-04-04T09:33:16.680Z,2.10
2023-04-04T09:34:16.674Z,2.20
2023-04-04T09:35:16.677Z,2.20
2023-04-04T09:36:18.293Z,2.20
2023-04-04T09:37:17.713Z,2.00
2023-04-04T09:38:16.656Z,2.00
2023-04-04T09:39:16.661Z,2.50
2023-04-04T09:40:16.685Z,2.20
2023-04-04T09:41:16.674Z,2.30
2023-04-04T09:42:16.784Z,2.30
2023-04-04T09:43:16.596Z,2.20
2023-04-04T09:44:16.594Z,2.40
2023-04-04T09:45:22.275Z,2.10
2023-04-04T09:46:18.585Z,2.20
2023-04-04T09:47:27.766Z,1.90
2023-04-04T09:48:17.555Z,2.20
2023-04-04T09:49:16.554Z,1.90
2023-04-04T09:50:16.569Z,2.10
2023-04-04T09:51:16.543Z,2.20
2023-04-04T09:52:16.526Z,2.30
2023-04-04T09:53:16.514Z,1.80
2023-04-04T09:54:28.869Z,2.00
2023-04-04T09:55:18.532Z,2.10
2023-04-04T09:56:16.499Z,1.90
2023-04-04T09:57:16.491Z,1.80
2023-04-04T09:58:16.489Z,1.70
2023-04-04T09:59:16.541Z,2.00
2023-04-04T10:00:16.496Z,1.90
2023-04-04T10:01:16.486Z,2.00
2023-04-04T10:02:16.454Z,2.40
2023-04-04T10:03:16.444Z,1.90
2023-04-04T10:04:16.454Z,2.30
2023-04-04T10:05:16.447Z,1.90
2023-04-04T10:06:16.415Z,1.70
2023-04-04T10:07:16.409Z,1.60
2023-04-04T10:08:16.398Z,2.00
2023-04-04T10:09:16.390Z,1.80
2023-04-04T10:10:16.409Z,1.90
2023-04-04T10:11:16.385Z,1.60
2023-04-04T10:12:16.374Z,2.00
2023-04-04T10:13:16.357Z,1.90
2023-04-04T10:14:16.349Z,1.90
2023-04-04T10:15:16.368Z,2.40
2023-04-04T10:16:16.378Z,1.70
2023-04-04T10:17:16.329Z,2.00
2023-04-04T10:18:16.345Z,1.80
2023-04-04T10:19:16.329Z,2.10
2023-04-04T10:20:16.341Z,2.70
2023-04-04T10:21:16.301Z,2.10
2023-04-04T10:22:16.297Z,2.30
2023-04-04T10:23:16.287Z,2.00
2023-04-04T10:24:16.305Z,2.00
2023-04-04T10:25:16.307Z,2.10
2023-04-04T10:26:16.284Z,1.90
2023-04-04T10:27:16.265Z,1.70
2023-04-04T10:28:16.252Z,2.30
2023-04-04T10:29:16.240Z,2.00
2023-04-04T10:30:16.242Z,1.80
2023-04-04T10:31:16.319Z,1.70
2023-04-04T10:32:16.212Z,1.70
2023-04-04T10:33:16.244Z,1.90
2023-04-04T10:34:16.218Z,1.60
2023-04-04T10:35:16.451Z,1.80
2023-04-04T10:36:16.263Z,1.90
2023-04-04T10:37:16.174Z,2.20
2023-04-04T10:38:16.184Z,2.00
2023-04-04T10:39:16.162Z,1.90
2023-04-04T10:40:16.152Z,2.00
2023-04-04T10:41:16.169Z,2.20
2023-04-04T10:42:16.147Z,1.80
2023-04-04T10:43:16.139Z,2.30
2023-04-04T10:44:16.136Z,2.10
2023-04-04T10:45:20.451Z,2.20
2023-04-04T10:46:17.205Z,2.30
2023-04-04T10:47:16.112Z,1.80
2023-04-04T10:48:16.112Z,2.10
2023-04-04T10:49:16.084Z,1.90
2023-04-04T10:50:16.081Z,1.90
2023-04-04T10:51:16.094Z,2.00
2023-04-04T10:52:16.060Z,2.10
2023-04-04T10:53:16.045Z,2.30
2023-04-04T10:54:16.043Z,2.00
2023-04-04T10:55:16.029Z,1.70
2023-04-04T10:56:16.057Z,2.00
2023-04-04T10:57:16.015Z,1.90
2023-04-04T10:58:16.009Z,2.10
2023-04-04T10:59:16.081Z,1.80
2023-04-04T11:00:16.003Z,1.60
2023-04-04T11:01:16.049Z,1.70
2023-04-04T11:02:15.998Z,1.80
2023-04-04T11:03:15.976Z,1.90
2023-04-04T11:04:17.894Z,1.90
2023-04-04T11:05:15.957Z,1.80
2023-04-04T11:06:15.993Z,1.70
2023-04-04T11:07:15.948Z,2.20
2023-04-04T11:08:15.973Z,2.10
2023-04-04T11:09:15.933Z,2.30
2023-04-04T11:10:15.930Z,2.00
2023-04-04T11:11:22.602Z,2.00
2023-04-04T11:12:17.934Z,1.90
2023-04-04T11:13:15.911Z,1.90
2023-04-04T11:14:15.885Z,2.00
2023-04-04T11:15:15.885Z,2.00
2023-04-04T11:16:15.999Z,1.90
2023-04-04T11:17:15.872Z,1.90
2023-04-04T11:18:31.620Z,2.00
2023-04-04T11:19:17.854Z,2.20
2023-04-04T11:20:15.849Z,2.10
2023-04-04T11:21:15.863Z,1.90
2023-04-04T11:22:15.820Z,1.90
2023-04-04T11:23:15.811Z,1.80
2023-04-04T11:24:15.834Z,2.00
2023-04-04T11:25:15.800Z,1.80
2023-04-04T11:26:15.814Z,1.70
2023-04-04T11:27:15.792Z,2.10
2023-04-04T11:28:15.788Z,1.60
2023-04-04T11:29:15.768Z,2.40
2023-04-04T11:30:15.772Z,2.10
2023-04-04T11:31:15.781Z,2.00
2023-04-04T11:32:15.805Z,1.70
2023-04-04T11:33:15.745Z,1.90
2023-04-04T11:34:15.744Z,1.90
2023-04-04T11:35:15.726Z,2.10
2023-04-04T11:36:15.795Z,1.80
2023-04-04T11:37:15.701Z,2.30
2023-04-04T11:38:15.696Z,2.10
2023-04-04T11:39:15.829Z,1.70
2023-04-04T11:40:15.677Z,2.40
2023-04-04T11:41:15.703Z,1.90
2023-04-04T11:42:15.665Z,1.90
2023-04-04T11:43:15.657Z,2.20
2023-04-04T11:44:15.646Z,2.10
2023-04-04T11:45:15.639Z,2.20
2023-04-04T11:46:15.653Z,2.00
2023-04-04T11:47:15.650Z,2.30
2023-04-04T11:48:15.620Z,2.10
2023-04-04T11:49:15.610Z,2.00
2023-04-04T11:50:15.612Z,2.60
2023-04-04T11:51:15.585Z,1.90
2023-04-04T11:52:15.628Z,2.00
2023-04-04T11:53:15.584Z,1.90
2023-04-04T11:54:15.566Z,1.70
2023-04-04T11:55:15.556Z,1.80
2023-04-04T11:56:15.555Z,1.90
2023-04-04T11:57:15.574Z,2.00
2023-04-04T11:58:15.533Z,1.90
2023-04-04T11:59:15.550Z,2.00
2023-04-04T12:00:15.612Z,2.20
2023-04-04T12:01:15.514Z,2.00
2023-04-04T12:02:15.534Z,2.00
2023-04-04T12:03:15.535Z,2.70
2023-04-04T12:04:15.502Z,2.40
2023-04-04T12:05:15.537Z,2.30
2023-04-04T12:06:15.507Z,2.30
2023-04-04T12:07:15.487Z,2.30
2023-04-04T12:08:15.462Z,2.10
2023-04-04T12:09:15.445Z,1.90
2023-04-04T12:10:15.464Z,1.80
2023-04-04T12:11:15.469Z,1.90
2023-04-04T12:12:15.454Z,2.00
2023-04-04T12:13:15.425Z,2.00
2023-04-04T12:14:15.421Z,2.50
2023-04-04T12:15:17.781Z,2.40
2023-04-04T12:16:16.459Z,2.00
2023-04-04T12:17:15.409Z,2.30
2023-04-04T12:18:15.383Z,2.00
2023-04-04T12:19:15.380Z,2.00
2023-04-04T12:20:15.363Z,2.10
2023-04-04T12:21:15.353Z,2.30
2023-04-04T12:22:15.377Z,1.90
2023-04-04T12:23:15.342Z,2.20
2023-04-04T12:24:15.344Z,2.30
2023-04-04T12:25:15.326Z,2.10
2023-04-04T12:26:15.319Z,2.10
2023-04-04T12:27:15.332Z,2.00
2023-04-04T12:28:15.307Z,2.00
2023-04-04T12:29:15.295Z,2.30
2023-04-04T12:30:15.297Z,2.20
2023-04-04T12:31:15.331Z,2.10
2023-04-04T12:32:15.302Z,1.90
2023-04-04T12:33:15.273Z,2.10
2023-04-04T12:34:16.249Z,1.90
2023-04-04T12:35:16.249Z,2.30
2023-04-04T12:36:15.291Z,1.90
2023-04-04T12:37:15.255Z,2.40
2023-04-04T12:38:15.216Z,2.00
2023-04-04T12:39:15.213Z,2.40
2023-04-04T12:40:15.216Z,2.10
2023-04-04T12:41:15.203Z,2.30
2023-04-04T12:42:15.205Z,2.00
2023-04-04T12:43:16.182Z,1.90
2023-04-04T12:44:15.184Z,1.90
2023-04-04T12:45:15.157Z,2.10
2023-04-04T12:46:15.193Z,2.00
2023-04-04T12:47:15.173Z,2.10
2023-04-04T12:48:15.138Z,1.80
2023-04-04T12:49:15.121Z,2.10
2023-04-04T12:50:15.115Z,2.20
2023-04-04T12:51:15.119Z,1.80
2023-04-04T12:52:15.132Z,2.10
2023-04-04T12:53:28.026Z,2.00
2023-04-04T12:54:17.087Z,2.20
2023-04-04T12:55:15.082Z,2.10
2023-04-04T12:56:15.181Z,2.10
2023-04-04T12:57:15.091Z,1.70
2023-04-04T12:58:15.062Z,2.10
2023-04-04T12:59:15.058Z,2.40
2023-04-04T13:00:15.043Z,2.10
2023-04-04T13:01:15.047Z,2.20
2023-04-04T13:02:15.071Z,2.30
2023-04-04T13:03:15.022Z,2.50
2023-04-04T13:04:15.032Z,2.20
2023-04-04T13:05:15.009Z,2.10
2023-04-04T13:06:15.079Z,1.90
2023-04-04T13:07:15.031Z,2.00
2023-04-04T13:08:14.987Z,2.10
2023-04-04T13:09:14.978Z,2.30
2023-04-04T13:10:15.106Z,2.10
2023-04-04T13:11:14.960Z,2.20
2023-04-04T13:12:14.979Z,2.00
2023-04-04T13:13:14.942Z,2.00
2023-04-04T13:14:15.269Z,2.00
2023-04-04T13:15:14.935Z,1.90
2023-04-04T13:16:14.955Z,2.90
2023-04-04T13:17:14.917Z,2.40
2023-04-04T13:18:14.938Z,2.40